createdAt,value
2017-10-30T00:00:03.395Z,99.99
2017-10-30T00:01:04.002Z,99.99
2017-10-30T00:02:04.609Z,99.99
2017-10-30T00:03:05.212Z,99.99
2017-10-30T00:04:05.815Z,99.99
2017-10-30T00:05:06.418Z,99.99
2017-10-30T00:06:07.025Z,99.99
2017-10-30T00:07:07.633Z,99.99
2017-10-30T00:08:08.243Z,99.99
2017-10-30T00:09:08.844Z,99.99
2017-10-30T00:10:09.434Z,99.99
2017-10-30T00:11:10.040Z,99.99
2017-10-30T00:12:10.648Z,99.99
2017-10-30T00:13:11.246Z,99.99
2017-10-30T00:14:11.849Z,99.99
2017-10-30T00:15:12.459Z,99.99
2017-10-30T00:16:13.062Z,99.99
2017-10-30T00:17:13.669Z,99.99
2017-10-30T00:18:14.273Z,99.99
2017-10-30T00:19:14.887Z,99.99
2017-10-30T00:20:15.473Z,99.99
2017-10-30T00:21:16.073Z,99.99
2017-10-30T00:22:16.669Z,99.99
2017-10-30T00:23:17.270Z,99.99
2017-10-30T00:24:17.876Z,99.99
2017-10-30T00:25:18.483Z,99.99
2017-10-30T00:26:19.077Z,99.99
2017-10-30T00:27:19.678Z,99.99
2017-10-30T00:28:20.284Z,99.99
2017-10-30T00:29:20.894Z,99.99
2017-10-30T00:30:21.498Z,99.99
2017-10-30T00:31:22.091Z,99.99
2017-10-30T00:32:22.700Z,99.99
2017-10-30T00:33:23.301Z,99.99
2017-10-30T00:34:23.902Z,99.99
2017-10-30T00:35:24.505Z,99.99
2017-10-30T00:36:25.113Z,99.99
2017-10-30T00:37:25.717Z,99.99
2017-10-30T00:38:26.320Z,99.99
2017-10-30T00:39:26.921Z,99.99
2017-10-30T00:40:27.527Z,99.99
2017-10-30T00:41:28.129Z,99.99
2017-10-30T00:42:28.737Z,99.99
2017-10-30T00:43:29.334Z,99.99
2017-10-30T00:44:29.939Z,99.99
2017-10-30T00:45:30.547Z,99.99
2017-10-30T00:46:31.148Z,99.99
2017-10-30T00:47:31.748Z,99.99
2017-10-30T00:48:32.351Z,99.99
2017-10-30T00:49:32.959Z,99.99
2017-10-30T00:50:33.585Z,99.99
2017-10-30T00:51:34.165Z,99.99
2017-10-30T00:52:34.767Z,99.99
2017-10-30T00:53:35.365Z,99.99
2017-10-30T00:54:35.964Z,99.99
2017-10-30T00:55:36.561Z,99.99
2017-10-30T00:56:37.151Z,99.99
2017-10-30T00:57:37.748Z,99.99
2017-10-30T00:58:38.357Z,99.99
2017-10-30T00:59:38.970Z,99.99
2017-10-30T01:01:23.779Z,99.99
2017-10-30T01:02:24.382Z,99.99
2017-10-30T01:03:24.985Z,99.99
2017-10-30T01:04:25.575Z,99.99
2017-10-30T01:05:26.182Z,99.99
2017-10-30T01:06:26.782Z,99.99
2017-10-30T01:07:27.394Z,99.99
2017-10-30T01:08:27.980Z,99.99
2017-10-30T01:09:28.578Z,99.99
2017-10-30T01:10:29.186Z,99.99
2017-10-30T01:11:29.792Z,99.99
2017-10-30T01:12:30.398Z,99.99
2017-10-30T01:13:30.997Z,99.99
2017-10-30T01:14:31.599Z,99.99
2017-10-30T01:15:32.202Z,99.99
2017-10-30T01:16:32.807Z,99.99
2017-10-30T01:17:33.402Z,99.99
2017-10-30T01:18:34.004Z,99.99
2017-10-30T01:19:34.597Z,99.99
2017-10-30T01:20:35.196Z,99.99
2017-10-30T01:21:35.796Z,99.99
2017-10-30T01:22:36.398Z,99.99
2017-10-30T01:23:36.996Z,99.99
2017-10-30T01:24:37.597Z,99.99
2017-10-30T01:25:38.194Z,99.99
2017-10-30T01:26:38.792Z,99.99
2017-10-30T01:27:39.407Z,99.99
2017-10-30T01:28:39.994Z,99.99
2017-10-30T01:29:40.604Z,99.99
2017-10-30T01:30:41.208Z,99.99
2017-10-30T01:31:41.806Z,99.99
2017-10-30T01:32:42.412Z,99.99
2017-10-30T01:33:43.005Z,99.99
2017-10-30T01:34:43.611Z,99.99
2017-10-30T01:35:44.211Z,99.99
2017-10-30T01:36:44.808Z,99.99
2017-10-30T01:37:45.409Z,99.99
2017-10-30T01:38:46.018Z,99.99
2017-10-30T01:39:46.618Z,99.99
2017-10-30T01:40:47.210Z,99.99
2017-10-30T01:41:47.803Z,99.99
2017-10-30T01:42:48.415Z,99.99
2017-10-30T01:43:48.989Z,99.99
2017-10-30T01:44:49.582Z,99.99
2017-10-30T01:45:50.188Z,99.99
2017-10-30T01:46:50.790Z,99.99
2017-10-30T01:47:51.397Z,99.99
2017-10-30T01:48:52.003Z,99.99
2017-10-30T01:49:52.607Z,99.99
2017-10-30T01:50:53.220Z,99.99
2017-10-30T01:51:53.816Z,99.99
2017-10-30T01:52:54.422Z,99.99
2017-10-30T01:53:55.032Z,99.99
2017-10-30T01:54:55.630Z,99.99
2017-10-30T01:55:56.224Z,99.99
2017-10-30T01:56:56.818Z,99.99
2017-10-30T01:57:57.413Z,99.99
2017-10-30T01:58:58.014Z,99.99
2017-10-30T01:59:58.615Z,99.99
2017-10-30T02:00:59.221Z,99.99
2017-10-30T02:01:59.817Z,99.99
2017-10-30T02:03:00.412Z,99.99
2017-10-30T02:04:01.005Z,99.99
2017-10-30T02:05:01.604Z,99.99
2017-10-30T02:06:02.216Z,99.99
2017-10-30T02:07:02.844Z,99.99
2017-10-30T02:08:03.427Z,99.99
2017-10-30T02:09:04.027Z,99.99
2017-10-30T02:10:04.628Z,99.99
2017-10-30T02:11:05.219Z,99.99
2017-10-30T02:12:05.825Z,99.99
2017-10-30T02:13:06.440Z,99.99
2017-10-30T02:14:07.040Z,99.99
2017-10-30T02:15:07.645Z,99.99
2017-10-30T02:16:08.256Z,99.99
2017-10-30T02:17:08.855Z,99.99
2017-10-30T02:18:09.462Z,99.99
2017-10-30T02:19:10.069Z,99.99
2017-10-30T02:20:10.672Z,99.99
2017-10-30T02:21:11.267Z,99.99
2017-10-30T02:22:11.865Z,99.99
2017-10-30T02:23:12.467Z,99.99
2017-10-30T02:24:13.064Z,99.99
2017-10-30T02:25:13.671Z,99.99
2017-10-30T02:26:14.282Z,99.99
2017-10-30T02:27:14.873Z,99.99
2017-10-30T02:28:15.482Z,99.99
2017-10-30T02:29:16.078Z,99.99
2017-10-30T02:30:16.679Z,99.99
2017-10-30T02:31:17.286Z,99.99
2017-10-30T02:32:17.911Z,99.99
2017-10-30T02:33:18.475Z,99.99
2017-10-30T02:34:19.093Z,99.99
2017-10-30T02:35:19.679Z,99.99
2017-10-30T02:36:20.280Z,99.99
2017-10-30T02:37:20.872Z,99.99
2017-10-30T02:38:21.464Z,99.99
2017-10-30T02:39:22.056Z,99.99
2017-10-30T02:40:22.655Z,99.99
2017-10-30T02:41:23.249Z,99.99
2017-10-30T02:42:23.842Z,99.99
2017-10-30T02:43:24.448Z,99.99
2017-10-30T02:44:25.054Z,99.99
2017-10-30T02:45:25.650Z,99.99
2017-10-30T02:46:26.240Z,99.99
2017-10-30T02:47:26.844Z,99.99
2017-10-30T02:48:27.436Z,99.99
2017-10-30T02:49:28.039Z,99.99
2017-10-30T02:50:28.666Z,99.99
2017-10-30T02:51:29.252Z,99.99
2017-10-30T02:52:29.859Z,99.99
2017-10-30T02:53:30.461Z,99.99
2017-10-30T02:54:31.061Z,99.99
2017-10-30T02:55:31.682Z,99.99
2017-10-30T02:56:32.273Z,99.99
2017-10-30T02:57:32.861Z,99.99
2017-10-30T02:58:33.464Z,99.99
2017-10-30T02:59:34.077Z,99.99
2017-10-30T03:00:34.673Z,99.99
2017-10-30T03:01:35.279Z,99.99
2017-10-30T03:02:35.881Z,99.99
2017-10-30T03:03:36.487Z,99.99
2017-10-30T03:04:37.079Z,99.99
2017-10-30T03:05:37.677Z,99.99
2017-10-30T03:06:38.287Z,99.99
2017-10-30T03:07:38.887Z,99.99
2017-10-30T03:08:39.498Z,99.99
2017-10-30T03:09:40.092Z,99.99
2017-10-30T03:10:40.696Z,99.99
2017-10-30T03:11:41.302Z,99.99
2017-10-30T03:12:41.901Z,99.99
2017-10-30T03:13:42.505Z,99.99
2017-10-30T03:14:43.103Z,99.99
2017-10-30T03:15:43.704Z,99.99
2017-10-30T03:16:44.323Z,99.99
2017-10-30T03:17:44.907Z,99.99
2017-10-30T03:18:45.512Z,99.99
2017-10-30T03:19:46.111Z,99.99
2017-10-30T03:20:46.704Z,99.99
2017-10-30T03:21:47.292Z,99.99
2017-10-30T03:22:47.896Z,99.99
2017-10-30T03:23:48.493Z,99.99
2017-10-30T03:24:49.095Z,99.99
2017-10-30T03:25:49.699Z,99.99
2017-10-30T03:26:50.301Z,99.99
2017-10-30T03:27:50.904Z,99.99
2017-10-30T03:28:51.508Z,99.99
2017-10-30T03:29:52.119Z,99.99
2017-10-30T03:30:52.722Z,99.99
2017-10-30T03:31:53.326Z,99.99
2017-10-30T03:32:53.928Z,99.99
2017-10-30T03:33:54.538Z,99.99
2017-10-30T03:34:55.143Z,99.99
2017-10-30T03:35:55.751Z,99.99
2017-10-30T03:36:56.339Z,99.99
2017-10-30T03:37:56.977Z,99.99
2017-10-30T03:38:57.545Z,99.99
2017-10-30T03:39:58.148Z,99.99
2017-10-30T03:40:58.744Z,99.99
2017-10-30T03:41:59.352Z,99.99
2017-10-30T03:42:59.957Z,99.99
2017-10-30T03:44:00.562Z,99.99
2017-10-30T03:45:01.168Z,99.99
2017-10-30T03:46:01.760Z,99.99
2017-10-30T03:47:02.360Z,99.99
2017-10-30T03:48:02.956Z,99.99
2017-10-30T03:49:03.558Z,99.99
2017-10-30T03:50:04.151Z,99.99
2017-10-30T03:51:04.760Z,99.99
2017-10-30T03:52:05.357Z,99.99
2017-10-30T03:53:05.955Z,99.99
2017-10-30T03:54:06.589Z,99.99
2017-10-30T03:55:07.173Z,99.99
2017-10-30T03:56:07.776Z,99.99
2017-10-30T03:57:08.367Z,99.99
2017-10-30T03:58:08.966Z,99.99
2017-10-30T03:59:09.568Z,99.99
2017-10-30T04:00:10.178Z,99.99
2017-10-30T04:01:10.783Z,99.99
2017-10-30T04:02:11.379Z,99.99
2017-10-30T04:03:11.971Z,99.99
2017-10-30T04:04:12.570Z,99.99
2017-10-30T04:05:13.177Z,99.99
2017-10-30T04:06:13.783Z,99.99
2017-10-30T04:07:14.387Z,99.99
2017-10-30T04:08:14.988Z,99.99
2017-10-30T04:09:15.597Z,99.99
2017-10-30T04:10:16.190Z,99.99
2017-10-30T04:11:16.786Z,99.99
2017-10-30T04:12:17.394Z,99.99
2017-10-30T04:13:17.988Z,99.99
2017-10-30T04:14:18.576Z,99.99
2017-10-30T04:15:19.200Z,99.99
2017-10-30T04:16:19.782Z,99.99
2017-10-30T04:17:20.384Z,99.99
2017-10-30T04:18:20.987Z,99.99
2017-10-30T04:19:21.594Z,99.99
2017-10-30T04:20:22.180Z,99.99
2017-10-30T04:21:22.776Z,99.99
2017-10-30T04:22:23.377Z,99.99
2017-10-30T04:23:23.979Z,99.99
2017-10-30T04:24:24.585Z,99.99
2017-10-30T04:25:25.187Z,99.99
2017-10-30T04:26:25.797Z,99.99
2017-10-30T04:27:26.379Z,99.99
2017-10-30T04:28:26.981Z,99.99
2017-10-30T04:29:27.583Z,99.99
2017-10-30T04:30:28.180Z,99.99
2017-10-30T04:31:28.771Z,99.99
2017-10-30T04:32:29.364Z,99.99
2017-10-30T04:33:29.972Z,99.99
2017-10-30T04:34:30.573Z,99.99
2017-10-30T04:35:31.173Z,99.99
2017-10-30T04:36:31.774Z,99.99
2017-10-30T04:37:32.378Z,99.99
2017-10-30T04:38:32.973Z,99.99
2017-10-30T04:39:33.584Z,99.99
2017-10-30T04:40:34.186Z,99.99
2017-10-30T04:41:34.787Z,99.99
2017-10-30T04:42:35.418Z,99.99
2017-10-30T04:43:35.978Z,99.99
2017-10-30T04:44:36.580Z,99.99
2017-10-30T04:45:37.172Z,99.99
2017-10-30T04:46:37.776Z,99.99
2017-10-30T04:47:38.368Z,99.99
2017-10-30T04:48:38.978Z,99.99
2017-10-30T04:49:39.581Z,99.99
2017-10-30T04:50:40.176Z,99.99
2017-10-30T04:51:40.781Z,99.99
2017-10-30T04:52:41.389Z,99.99
2017-10-30T04:53:41.982Z,99.99
2017-10-30T04:54:42.601Z,99.99
2017-10-30T04:55:43.190Z,99.99
2017-10-30T04:56:43.790Z,99.99
2017-10-30T04:57:44.381Z,99.99
2017-10-30T04:58:44.988Z,99.99
2017-10-30T04:59:45.588Z,99.99
2017-10-30T05:00:46.185Z,99.99
2017-10-30T05:01:46.786Z,99.99
2017-10-30T05:02:47.381Z,99.99
2017-10-30T05:03:47.987Z,99.99
2017-10-30T05:04:48.595Z,99.99
2017-10-30T05:05:49.194Z,99.99
2017-10-30T05:06:49.781Z,99.99
2017-10-30T05:07:50.380Z,99.99
2017-10-30T05:08:50.982Z,99.99
2017-10-30T05:09:51.599Z,99.99
2017-10-30T05:10:52.198Z,99.99
2017-10-30T05:11:52.805Z,99.99
2017-10-30T05:12:53.412Z,99.99
2017-10-30T05:13:54.015Z,99.99
2017-10-30T05:14:54.602Z,99.99
2017-10-30T05:15:55.199Z,99.99
2017-10-30T05:16:55.799Z,99.99
2017-10-30T05:17:56.398Z,99.99
2017-10-30T05:18:56.989Z,99.99
2017-10-30T05:19:57.596Z,99.99
2017-10-30T05:20:58.200Z,99.99
2017-10-30T05:21:58.802Z,99.99
2017-10-30T05:22:59.405Z,99.99
2017-10-30T05:24:00.010Z,99.99
2017-10-30T05:25:00.621Z,99.99
2017-10-30T05:26:01.230Z,99.99
2017-10-30T05:27:01.819Z,99.99
2017-10-30T05:28:02.426Z,99.99
2017-10-30T05:29:03.018Z,99.99
2017-10-30T05:30:03.608Z,99.99
2017-10-30T05:31:04.198Z,99.99
2017-10-30T05:32:04.794Z,99.99
2017-10-30T05:33:05.396Z,99.99
2017-10-30T05:34:06.012Z,99.99
2017-10-30T05:35:06.587Z,99.99
2017-10-30T05:36:07.194Z,99.99
2017-10-30T05:37:07.798Z,99.99
2017-10-30T05:38:08.405Z,99.99
2017-10-30T05:39:09.014Z,99.99
2017-10-30T05:40:09.619Z,99.99
2017-10-30T05:41:10.220Z,99.99
2017-10-30T05:42:10.857Z,99.99
2017-10-30T05:43:11.416Z,99.99
2017-10-30T05:44:12.021Z,99.99
2017-10-30T05:45:12.611Z,99.99
2017-10-30T05:46:13.198Z,99.99
2017-10-30T05:47:13.791Z,99.99
2017-10-30T05:48:14.417Z,99.99
2017-10-30T05:49:14.989Z,99.99
2017-10-30T05:50:15.595Z,99.99
2017-10-30T05:51:16.213Z,99.99
2017-10-30T05:52:16.798Z,99.99
2017-10-30T05:53:17.389Z,99.99
2017-10-30T05:54:18.038Z,99.99
2017-10-30T05:55:18.595Z,99.99
2017-10-30T05:56:19.227Z,99.99
2017-10-30T05:57:19.799Z,99.99
2017-10-30T05:58:20.406Z,99.99
2017-10-30T05:59:21.011Z,99.99
2017-10-30T06:00:21.634Z,99.99
2017-10-30T06:01:22.235Z,99.99
2017-10-30T06:02:22.844Z,99.99
2017-10-30T06:03:23.452Z,99.99
2017-10-30T06:04:24.057Z,99.99
2017-10-30T06:05:24.660Z,99.99
2017-10-30T06:06:25.270Z,99.99
2017-10-30T06:07:25.862Z,99.99
2017-10-30T06:08:26.464Z,99.99
2017-10-30T06:09:27.058Z,99.99
2017-10-30T06:10:27.652Z,99.99
2017-10-30T06:11:28.269Z,99.99
2017-10-30T06:12:28.851Z,99.99
2017-10-30T06:13:29.449Z,99.99
2017-10-30T06:14:30.051Z,99.99
2017-10-30T06:15:30.657Z,99.99
2017-10-30T06:16:31.252Z,99.99
2017-10-30T06:17:31.863Z,99.99
2017-10-30T06:18:32.461Z,99.99
2017-10-30T06:19:33.063Z,99.99
2017-10-30T06:20:33.675Z,99.99
2017-10-30T06:21:34.277Z,99.99
2017-10-30T06:22:34.878Z,99.99
2017-10-30T06:23:35.472Z,99.99
2017-10-30T06:24:36.086Z,99.99
2017-10-30T06:25:36.676Z,99.99
2017-10-30T06:26:37.270Z,99.99
2017-10-30T06:27:37.871Z,99.99
2017-10-30T06:28:38.464Z,99.99
2017-10-30T06:29:39.073Z,99.99
2017-10-30T06:30:39.681Z,99.99
2017-10-30T06:31:40.278Z,99.99
2017-10-30T06:32:40.872Z,99.99
2017-10-30T06:33:41.465Z,99.99
2017-10-30T06:34:42.063Z,99.99
2017-10-30T06:35:42.666Z,99.99
2017-10-30T06:36:43.277Z,99.99
2017-10-30T06:37:43.879Z,99.99
2017-10-30T06:38:44.483Z,99.99
2017-10-30T06:39:45.268Z,99.99
2017-10-30T06:40:45.863Z,99.99
2017-10-30T06:41:46.465Z,99.99
2017-10-30T06:42:47.062Z,99.99
2017-10-30T06:43:47.668Z,99.99
2017-10-30T06:44:48.274Z,99.99
2017-10-30T06:45:48.882Z,99.99
2017-10-30T06:46:49.492Z,99.99
2017-10-30T06:47:50.104Z,99.99
2017-10-30T06:48:50.708Z,99.99
2017-10-30T06:49:51.308Z,99.99
2017-10-30T06:50:51.911Z,99.99
2017-10-30T06:51:52.520Z,99.99
2017-10-30T06:52:53.129Z,99.99
2017-10-30T06:53:53.739Z,99.99
2017-10-30T06:54:54.351Z,99.99
2017-10-30T06:55:54.948Z,99.99
2017-10-30T06:56:55.550Z,99.99
2017-10-30T06:57:56.162Z,99.99
2017-10-30T06:58:56.765Z,99.99
2017-10-30T06:59:57.374Z,99.99
2017-10-30T07:00:57.974Z,99.99
2017-10-30T07:01:58.581Z,99.99
2017-10-30T07:02:59.187Z,99.99
2017-10-30T07:03:59.796Z,99.99
2017-10-30T07:05:00.410Z,99.99
2017-10-30T07:06:01.003Z,99.99
2017-10-30T07:07:01.615Z,99.99
2017-10-30T07:08:02.217Z,99.99
2017-10-30T07:09:02.821Z,99.99
2017-10-30T07:10:03.433Z,99.99
2017-10-30T07:11:04.046Z,99.99
2017-10-30T07:12:04.655Z,99.99
2017-10-30T07:13:05.259Z,99.99
2017-10-30T07:14:05.872Z,99.99
2017-10-30T07:15:06.465Z,99.99
2017-10-30T07:16:07.079Z,99.99
2017-10-30T07:17:07.685Z,99.99
2017-10-30T07:18:08.287Z,99.99
2017-10-30T07:19:08.895Z,99.99
2017-10-30T07:20:09.503Z,99.99
2017-10-30T07:21:10.123Z,99.99
2017-10-30T07:22:10.735Z,99.99
2017-10-30T07:23:11.349Z,99.99
2017-10-30T07:24:11.962Z,99.99
2017-10-30T07:25:12.574Z,99.99
2017-10-30T07:26:13.209Z,99.99
2017-10-30T07:27:13.821Z,99.99
2017-10-30T07:28:14.433Z,99.99
2017-10-30T07:29:15.044Z,99.99
2017-10-30T07:30:15.656Z,99.99
2017-10-30T07:31:16.266Z,99.99
2017-10-30T07:32:16.880Z,99.99
2017-10-30T07:33:17.493Z,99.99
2017-10-30T07:34:18.104Z,99.99
2017-10-30T07:35:18.715Z,99.99
2017-10-30T07:36:19.326Z,99.99
2017-10-30T07:37:19.938Z,99.99
2017-10-30T07:38:20.550Z,99.99
2017-10-30T07:39:21.162Z,99.99
2017-10-30T07:40:21.795Z,99.99
2017-10-30T07:41:22.397Z,99.99
2017-10-30T07:42:22.998Z,99.99
2017-10-30T07:43:23.619Z,99.99
2017-10-30T07:44:24.227Z,99.99
2017-10-30T07:45:24.830Z,99.99
2017-10-30T07:46:25.433Z,99.99
2017-10-30T07:47:26.046Z,99.99
2017-10-30T07:48:26.652Z,99.99
2017-10-30T07:49:27.253Z,99.99
2017-10-30T07:50:27.867Z,99.99
2017-10-30T07:51:28.481Z,99.99
2017-10-30T07:52:29.091Z,99.99
2017-10-30T07:53:29.710Z,99.99
2017-10-30T07:54:30.330Z,99.93
2017-10-30T07:55:30.946Z,99.93
2017-10-30T07:56:31.577Z,99.93
2017-10-30T07:57:32.172Z,99.98
2017-10-30T07:58:32.786Z,99.99
2017-10-30T07:59:33.391Z,99.93
2017-10-30T08:00:34.005Z,99.50
2017-10-30T08:01:34.617Z,99.50
2017-10-30T08:02:35.216Z,99.88
2017-10-30T08:03:35.824Z,99.99
2017-10-30T08:04:36.436Z,99.79
2017-10-30T08:05:37.042Z,99.99
2017-10-30T08:06:37.646Z,99.99
2017-10-30T08:07:38.249Z,99.99
2017-10-30T08:08:38.862Z,99.99
2017-10-30T08:09:39.462Z,99.99
2017-10-30T08:10:40.065Z,99.99
2017-10-30T08:11:40.680Z,99.99
2017-10-30T08:12:41.280Z,99.99
2017-10-30T08:13:41.881Z,99.99
2017-10-30T08:14:42.490Z,99.99
2017-10-30T08:15:43.088Z,99.99
2017-10-30T08:16:43.697Z,99.99
2017-10-30T08:17:44.302Z,99.99
2017-10-30T08:18:44.912Z,99.99
2017-10-30T08:19:45.511Z,99.99
2017-10-30T08:20:46.119Z,99.99
2017-10-30T08:21:46.737Z,99.99
2017-10-30T08:22:47.322Z,99.99
2017-10-30T08:23:47.933Z,99.99
2017-10-30T08:24:48.551Z,99.99
2017-10-30T08:25:49.159Z,99.99
2017-10-30T08:26:49.772Z,99.99
2017-10-30T08:27:50.386Z,99.99
2017-10-30T08:28:50.993Z,99.99
2017-10-30T08:29:51.593Z,99.99
2017-10-30T08:30:52.202Z,99.99
2017-10-30T08:31:52.814Z,99.99
2017-10-30T08:32:53.430Z,99.99
2017-10-30T08:33:54.040Z,99.99
2017-10-30T08:34:54.652Z,99.99
2017-10-30T08:35:55.263Z,99.99
2017-10-30T08:36:55.867Z,99.99
2017-10-30T08:37:56.478Z,99.99
2017-10-30T08:38:57.081Z,99.99
2017-10-30T08:39:57.696Z,99.99
2017-10-30T08:40:58.307Z,99.99
2017-10-30T08:41:58.915Z,99.99
2017-10-30T08:42:59.529Z,99.99
2017-10-30T08:44:00.141Z,99.99
2017-10-30T08:45:00.744Z,99.99
2017-10-30T08:46:01.365Z,99.99
2017-10-30T08:47:01.981Z,99.99
2017-10-30T08:48:02.599Z,99.99
2017-10-30T08:49:03.215Z,99.99
2017-10-30T08:50:03.824Z,99.99
2017-10-30T08:51:04.438Z,99.99
2017-10-30T08:52:05.055Z,99.99
2017-10-30T08:53:05.663Z,99.99
2017-10-30T08:54:06.280Z,99.99
2017-10-30T08:55:06.876Z,99.93
2017-10-30T08:56:07.488Z,99.46
2017-10-30T08:57:08.096Z,98.60
2017-10-30T08:58:08.707Z,98.65
2017-10-30T08:59:09.319Z,98.08
2017-10-30T09:00:09.921Z,97.79
2017-10-30T09:01:10.540Z,96.65
2017-10-30T09:02:11.151Z,96.08
2017-10-30T09:03:11.761Z,95.46
2017-10-30T09:04:12.373Z,95.46
2017-10-30T09:05:12.988Z,95.75
2017-10-30T09:06:13.909Z,94.51
2017-10-30T09:07:14.450Z,94.41
2017-10-30T09:08:15.067Z,93.84
2017-10-30T09:09:15.677Z,93.70
2017-10-30T09:10:16.281Z,93.70
2017-10-30T09:11:16.902Z,92.79
2017-10-30T09:12:17.517Z,92.03
2017-10-30T09:13:18.126Z,90.41
2017-10-30T09:14:18.746Z,89.26
2017-10-30T09:15:19.364Z,89.07
2017-10-30T09:16:19.977Z,88.59
2017-10-30T09:17:20.585Z,88.07
2017-10-30T09:18:21.201Z,87.87
2017-10-30T09:19:21.817Z,87.15
2017-10-30T09:20:22.436Z,86.73
2017-10-30T09:21:23.049Z,87.15
2017-10-30T09:22:23.662Z,86.87
2017-10-30T09:23:24.284Z,85.82
2017-10-30T09:24:24.907Z,85.67
2017-10-30T09:25:25.528Z,84.62
2017-10-30T09:26:26.134Z,84.14
2017-10-30T09:27:26.744Z,83.95
2017-10-30T09:28:27.349Z,83.00
2017-10-30T09:29:27.957Z,83.18
2017-10-30T09:30:28.572Z,83.57
2017-10-30T09:31:29.190Z,83.80
2017-10-30T09:32:29.809Z,82.94
2017-10-30T09:33:30.431Z,81.79
2017-10-30T09:34:31.028Z,81.22
2017-10-30T09:35:31.643Z,80.65
2017-10-30T09:36:32.263Z,81.37
2017-10-30T09:37:32.878Z,80.90
2017-10-30T09:38:33.488Z,81.56
2017-10-30T09:39:34.109Z,81.09
2017-10-30T09:40:34.730Z,81.85
2017-10-30T09:41:35.355Z,81.18
2017-10-30T09:42:35.965Z,81.13
2017-10-30T09:43:36.607Z,81.41
2017-10-30T09:44:37.229Z,81.32
2017-10-30T09:45:37.842Z,80.27
2017-10-30T09:46:38.447Z,80.55
2017-10-30T09:47:39.066Z,80.36
2017-10-30T09:48:39.683Z,80.55
2017-10-30T09:49:40.293Z,80.74
2017-10-30T09:50:40.908Z,79.98
2017-10-30T09:51:41.528Z,79.41
2017-10-30T09:52:42.149Z,79.41
2017-10-30T09:53:42.757Z,79.54
2017-10-30T09:54:43.368Z,79.44
2017-10-30T09:55:43.983Z,79.16
2017-10-30T09:56:44.593Z,77.76
2017-10-30T09:57:45.202Z,77.57
2017-10-30T09:58:45.811Z,76.90
2017-10-30T09:59:46.432Z,76.62
2017-10-30T10:00:47.059Z,76.90
2017-10-30T10:01:47.662Z,77.00
2017-10-30T10:02:48.269Z,76.71
2017-10-30T10:03:48.884Z,76.56
2017-10-30T10:04:49.722Z,75.85
2017-10-30T10:05:50.338Z,75.37
2017-10-30T10:06:50.958Z,75.27
2017-10-30T10:07:51.561Z,75.47
2017-10-30T10:08:52.182Z,75.56
2017-10-30T10:09:52.899Z,74.90
2017-10-30T10:10:53.508Z,75.27
2017-10-30T10:11:54.119Z,74.99
2017-10-30T10:12:54.742Z,75.27
2017-10-30T10:13:55.357Z,75.27
2017-10-30T10:14:55.978Z,75.56
2017-10-30T10:15:56.600Z,75.09
2017-10-30T10:16:57.210Z,75.09
2017-10-30T10:17:57.824Z,75.47
2017-10-30T10:18:58.441Z,75.60
2017-10-30T10:19:59.064Z,74.55
2017-10-30T10:20:59.673Z,74.16
2017-10-30T10:22:00.404Z,74.07
2017-10-30T10:23:01.089Z,73.82
2017-10-30T10:24:01.649Z,73.34
2017-10-30T10:25:02.258Z,72.23
2017-10-30T10:26:03.051Z,70.79
2017-10-30T10:27:03.694Z,70.76
2017-10-30T10:28:04.520Z,71.42
2017-10-30T10:29:05.135Z,71.23
2017-10-30T10:30:05.753Z,71.52
2017-10-30T10:31:06.370Z,70.66
2017-10-30T10:32:06.996Z,70.72
2017-10-30T10:33:07.615Z,71.48
2017-10-30T10:34:08.235Z,71.04
2017-10-30T10:35:08.859Z,70.28
2017-10-30T10:36:09.476Z,70.47
2017-10-30T10:37:10.084Z,70.66
2017-10-30T10:38:10.703Z,70.95
2017-10-30T10:39:11.323Z,70.56
2017-10-30T10:40:11.937Z,70.66
2017-10-30T10:41:12.558Z,70.98
2017-10-30T10:42:13.183Z,70.21
2017-10-30T10:43:13.800Z,69.17
2017-10-30T10:44:14.403Z,69.39
2017-10-30T10:45:15.050Z,68.81
2017-10-30T10:46:15.639Z,69.10
2017-10-30T10:47:16.260Z,68.14
2017-10-30T10:48:16.895Z,67.57
2017-10-30T10:49:17.508Z,67.05
2017-10-30T10:50:18.133Z,67.66
2017-10-30T10:51:18.755Z,68.05
2017-10-30T10:52:19.359Z,67.99
2017-10-30T10:53:19.979Z,67.69
2017-10-30T10:54:20.596Z,67.12
2017-10-30T10:55:21.217Z,67.22
2017-10-30T10:56:21.836Z,66.64
2017-10-30T10:57:22.459Z,67.41
2017-10-30T10:58:23.061Z,67.02
2017-10-30T10:59:23.678Z,66.55
2017-10-30T11:00:24.279Z,66.06
2017-10-30T11:01:24.898Z,65.62
2017-10-30T11:02:25.529Z,64.95
2017-10-30T11:03:26.135Z,64.50
2017-10-30T11:04:26.756Z,64.92
2017-10-30T11:05:27.379Z,63.76
2017-10-30T11:06:27.998Z,62.68
2017-10-30T11:07:28.617Z,62.68
2017-10-30T11:08:29.234Z,62.58
2017-10-30T11:09:29.859Z,63.16
2017-10-30T11:10:30.481Z,63.16
2017-10-30T11:11:31.101Z,62.58
2017-10-30T11:12:31.724Z,63.22
2017-10-30T11:13:32.339Z,63.86
2017-10-30T11:14:32.967Z,64.43
2017-10-30T11:15:33.582Z,65.05
2017-10-30T11:16:34.202Z,63.99
2017-10-30T11:17:34.819Z,63.76
2017-10-30T11:18:35.429Z,64.34
2017-10-30T11:19:36.045Z,64.59
2017-10-30T11:20:36.671Z,66.09
2017-10-30T11:21:37.288Z,66.96
2017-10-30T11:22:37.901Z,67.44
2017-10-30T11:23:38.533Z,67.41
2017-10-30T11:24:39.140Z,68.80
2017-10-30T11:25:39.763Z,70.05
2017-10-30T11:26:40.383Z,70.87
2017-10-30T11:27:41.008Z,71.22
2017-10-30T11:28:41.628Z,71.99
2017-10-30T11:29:42.248Z,72.72
2017-10-30T11:30:42.875Z,73.77
2017-10-30T11:31:43.491Z,74.49
2017-10-30T11:32:44.105Z,74.59
2017-10-30T11:33:44.719Z,75.16
2017-10-30T11:34:45.336Z,75.70
2017-10-30T11:35:45.954Z,77.09
2017-10-30T11:36:46.566Z,77.23
2017-10-30T11:37:47.183Z,76.98
2017-10-30T11:38:47.805Z,76.06
2017-10-30T11:39:48.422Z,74.80
2017-10-30T11:40:49.025Z,73.65
2017-10-30T11:41:49.632Z,73.21
2017-10-30T11:42:50.251Z,71.71
2017-10-30T11:43:50.871Z,70.41
2017-10-30T11:44:51.492Z,69.64
2017-10-30T11:45:52.112Z,69.35
2017-10-30T11:46:52.793Z,67.66
2017-10-30T11:47:53.354Z,66.74
2017-10-30T11:48:53.972Z,64.92
2017-10-30T11:49:54.581Z,63.79
2017-10-30T11:50:55.192Z,62.81
2017-10-30T11:51:55.809Z,62.84
2017-10-30T11:52:56.411Z,61.33
2017-10-30T11:53:57.034Z,60.18
2017-10-30T11:54:57.647Z,59.96
2017-10-30T11:55:58.280Z,60.44
2017-10-30T11:56:58.893Z,60.79
2017-10-30T11:57:59.515Z,61.82
2017-10-30T11:59:00.129Z,62.84
2017-10-30T12:00:00.744Z,63.51
2017-10-30T12:01:01.365Z,63.76
2017-10-30T12:02:01.987Z,65.65
2017-10-30T12:03:02.604Z,67.05
2017-10-30T12:04:03.220Z,68.01
2017-10-30T12:05:03.836Z,68.84
2017-10-30T12:06:04.455Z,69.79
2017-10-30T12:07:05.082Z,71.09
2017-10-30T12:08:05.711Z,72.68
2017-10-30T12:09:06.335Z,73.79
2017-10-30T12:10:06.941Z,74.74
2017-10-30T12:11:07.688Z,75.51
2017-10-30T12:12:08.302Z,75.64
2017-10-30T12:13:08.916Z,75.87
2017-10-30T12:14:09.521Z,73.99
2017-10-30T12:15:10.139Z,73.08
2017-10-30T12:16:10.749Z,71.87
2017-10-30T12:17:11.370Z,70.95
2017-10-30T12:18:11.992Z,69.45
2017-10-30T12:19:12.609Z,66.71
2017-10-30T12:20:13.224Z,65.46
2017-10-30T12:21:13.829Z,64.59
2017-10-30T12:22:14.448Z,64.76
2017-10-30T12:23:15.064Z,64.92
2017-10-30T12:24:15.685Z,66.89
2017-10-30T12:25:16.305Z,67.05
2017-10-30T12:26:16.919Z,67.82
2017-10-30T12:27:17.538Z,68.45
2017-10-30T12:28:18.147Z,68.84
2017-10-30T12:29:18.748Z,69.98
2017-10-30T12:30:19.360Z,70.07
2017-10-30T12:31:19.970Z,70.27
2017-10-30T12:32:20.592Z,70.81
2017-10-30T12:33:21.200Z,70.61
2017-10-30T12:34:21.810Z,71.19
2017-10-30T12:35:22.415Z,72.14
2017-10-30T12:36:23.030Z,72.20
2017-10-30T12:37:23.636Z,72.05
2017-10-30T12:38:24.247Z,72.43
2017-10-30T12:39:24.860Z,72.24
2017-10-30T12:40:25.474Z,72.14
2017-10-30T12:41:26.091Z,72.49
2017-10-30T12:42:26.709Z,72.78
2017-10-30T12:43:27.438Z,72.68
2017-10-30T12:44:27.960Z,72.87
2017-10-30T12:45:28.580Z,73.54
2017-10-30T12:46:29.206Z,73.54
2017-10-30T12:47:29.802Z,72.97
2017-10-30T12:48:30.420Z,72.91
2017-10-30T12:49:31.033Z,72.72
2017-10-30T12:50:31.652Z,71.80
2017-10-30T12:51:32.272Z,71.32
2017-10-30T12:52:32.887Z,70.75
2017-10-30T12:53:33.503Z,70.56
2017-10-30T12:54:34.142Z,70.65
2017-10-30T12:55:34.747Z,70.65
2017-10-30T12:56:35.352Z,70.71
2017-10-30T12:57:35.968Z,70.84
2017-10-30T12:58:36.585Z,71.00
2017-10-30T12:59:37.220Z,71.57
2017-10-30T13:00:37.829Z,71.67